Tver, Russia
Current Conditions -  °F | °C
As of 2:00 AM on Tuesday 21 Oct 2014 (Local Time) from UUEE Reporting Station
Drizzle Drizzle  
Wind Chill: 28°   Ceiling: 100
Heat Index: 34°   Visibility: 1mi
Dew Point: 34°   Wind: 7mph
Humidity: 100%   Direction: 80°E
Pressure: 29.32"   Gusts: NA
Location:  56.86°N, 35.89°E
Report Text: UUEE 202300Z 08003MPS 1700 -DZ BR OVC001 01/01 Q0993 7529014525290145 TEMPO 0300 FG VV001 RMK QBB050
Loading
Personal Weather Stations






























Interactive Weather Map
Tropical Storm Tracking
New forecast layout! Learn more

10-Day Weather Forecast

Advertisements
Track Severe Weather on mobile